sensor_id;sensor_type;location;lat;lon;timestamp;P1;durP1;ratioP1;P2;durP2;ratioP2
72125;SDS011;59999;51.676;22.650;2022-09-28T00:02:03;31.58;;;14.38;;
72125;SDS011;59999;51.676;22.650;2022-09-28T00:04:30;31.30;;;13.30;;
72125;SDS011;59999;51.676;22.650;2022-09-28T00:06:58;28.70;;;13.48;;
72125;SDS011;59999;51.676;22.650;2022-09-28T00:09:24;29.48;;;14.35;;
72125;SDS011;59999;51.676;22.650;2022-09-28T00:11:51;27.95;;;12.55;;
72125;SDS011;59999;51.676;22.650;2022-09-28T00:14:22;28.45;;;13.35;;
72125;SDS011;59999;51.676;22.650;2022-09-28T00:16:48;27.97;;;13.20;;
72125;SDS011;59999;51.676;22.650;2022-09-28T00:19:14;27.42;;;13.75;;
72125;SDS011;59999;51.676;22.650;2022-09-28T00:21:41;29.45;;;12.48;;
72125;SDS011;59999;51.676;22.650;2022-09-28T00:24:09;24.83;;;12.23;;
72125;SDS011;59999;51.676;22.650;2022-09-28T00:26:41;26.13;;;12.55;;
72125;SDS011;59999;51.676;22.650;2022-09-28T00:29:22;27.03;;;12.50;;
72125;SDS011;59999;51.676;22.650;2022-09-28T00:31:52;28.90;;;12.50;;
72125;SDS011;59999;51.676;22.650;2022-09-28T00:34:24;27.15;;;13.52;;
72125;SDS011;59999;51.676;22.650;2022-09-28T00:36:51;25.92;;;12.30;;
72125;SDS011;59999;51.676;22.650;2022-09-28T00:39:17;28.40;;;13.67;;
72125;SDS011;59999;51.676;22.650;2022-09-28T00:41:44;27.60;;;13.15;;
72125;SDS011;59999;51.676;22.650;2022-09-28T00:55:07;28.05;;;13.15;;
72125;SDS011;59999;51.676;22.650;2022-09-28T00:57:36;26.67;;;12.52;;
72125;SDS011;59999;51.676;22.650;2022-09-28T01:00:05;26.73;;;12.57;;
72125;SDS011;59999;51.676;22.650;2022-09-28T01:02:32;27.85;;;13.32;;
72125;SDS011;59999;51.676;22.650;2022-09-28T01:04:59;26.33;;;12.47;;
72125;SDS011;59999;51.676;22.650;2022-09-28T01:07:26;28.42;;;13.40;;
72125;SDS011;59999;51.676;22.650;2022-09-28T01:09:52;28.42;;;13.82;;
72125;SDS011;59999;51.676;22.650;2022-09-28T01:12:19;30.20;;;13.75;;
72125;SDS011;59999;51.676;22.650;2022-09-28T01:14:45;26.33;;;12.88;;
72125;SDS011;59999;51.676;22.650;2022-09-28T01:17:15;29.53;;;14.00;;
72125;SDS011;59999;51.676;22.650;2022-09-28T01:20:04;31.52;;;14.38;;
72125;SDS011;59999;51.676;22.650;2022-09-28T01:25:39;29.35;;;13.77;;
72125;SDS011;59999;51.676;22.650;2022-09-28T01:28:27;28.67;;;13.77;;
72125;SDS011;59999;51.676;22.650;2022-09-28T01:30:56;28.27;;;14.10;;
72125;SDS011;59999;51.676;22.650;2022-09-28T01:33:46;28.10;;;14.00;;
72125;SDS011;59999;51.676;22.650;2022-09-28T01:36:21;30.02;;;15.20;;
72125;SDS011;59999;51.676;22.650;2022-09-28T01:38:58;30.00;;;13.88;;
72125;SDS011;59999;51.676;22.650;2022-09-28T01:41:38;29.20;;;15.18;;
72125;SDS011;59999;51.676;22.650;2022-09-28T01:44:07;29.03;;;13.53;;
72125;SDS011;59999;51.676;22.650;2022-09-28T01:46:38;29.77;;;14.55;;
72125;SDS011;59999;51.676;22.650;2022-09-28T01:49:31;34.30;;;15.98;;
72125;SDS011;59999;51.676;22.650;2022-09-28T01:57:14;35.23;;;15.27;;
72125;SDS011;59999;51.676;22.650;2022-09-28T02:00:07;28.98;;;14.43;;
72125;SDS011;59999;51.676;22.650;2022-09-28T02:02:36;34.17;;;15.88;;
72125;SDS011;59999;51.676;22.650;2022-09-28T02:05:13;34.00;;;15.63;;
72125;SDS011;59999;51.676;22.650;2022-09-28T02:10:49;35.40;;;15.67;;
72125;SDS011;59999;51.676;22.650;2022-09-28T02:18:59;34.25;;;16.15;;
72125;SDS011;59999;51.676;22.650;2022-09-28T02:21:27;32.67;;;16.75;;
72125;SDS011;59999;51.676;22.650;2022-09-28T02:23:58;34.03;;;16.00;;
72125;SDS011;59999;51.676;22.650;2022-09-28T02:26:29;33.25;;;16.30;;
72125;SDS011;59999;51.676;22.650;2022-09-28T02:28:58;35.35;;;16.17;;
72125;SDS011;59999;51.676;22.650;2022-09-28T02:31:25;34.75;;;16.73;;
72125;SDS011;59999;51.676;22.650;2022-09-28T02:33:52;27.90;;;13.07;;
72125;SDS011;59999;51.676;22.650;2022-09-28T02:36:20;27.43;;;13.10;;
72125;SDS011;59999;51.676;22.650;2022-09-28T02:38:47;20.67;;;10.23;;
72125;SDS011;59999;51.676;22.650;2022-09-28T02:49:26;12.70;;;5.37;;
72125;SDS011;59999;51.676;22.650;2022-09-28T02:52:19;9.02;;;3.63;;
72125;SDS011;59999;51.676;22.650;2022-09-28T02:58:35;11.15;;;4.75;;
72125;SDS011;59999;51.676;22.650;2022-09-28T03:05:02;9.20;;;3.87;;
72125;SDS011;59999;51.676;22.650;2022-09-28T03:07:46;8.60;;;3.78;;
72125;SDS011;59999;51.676;22.650;2022-09-28T03:13:29;12.07;;;4.03;;
72125;SDS011;59999;51.676;22.650;2022-09-28T03:16:10;9.27;;;3.90;;
72125;SDS011;59999;51.676;22.650;2022-09-28T03:18:38;8.93;;;3.93;;
72125;SDS011;59999;51.676;22.650;2022-09-28T03:21:05;9.60;;;4.13;;
72125;SDS011;59999;51.676;22.650;2022-09-28T03:23:31;10.82;;;4.13;;
72125;SDS011;59999;51.676;22.650;2022-09-28T03:25:57;8.45;;;3.60;;
72125;SDS011;59999;51.676;22.650;2022-09-28T03:28:24;6.95;;;2.75;;
72125;SDS011;59999;51.676;22.650;2022-09-28T03:30:50;6.70;;;2.20;;
72125;SDS011;59999;51.676;22.650;2022-09-28T03:33:16;6.28;;;2.00;;
72125;SDS011;59999;51.676;22.650;2022-09-28T03:35:45;7.55;;;2.00;;
72125;SDS011;59999;51.676;22.650;2022-09-28T03:38:12;6.88;;;2.40;;
72125;SDS011;59999;51.676;22.650;2022-09-28T03:40:38;4.90;;;1.30;;
72125;SDS011;59999;51.676;22.650;2022-09-28T03:43:04;5.87;;;1.90;;
72125;SDS011;59999;51.676;22.650;2022-09-28T03:45:30;5.90;;;1.67;;
72125;SDS011;59999;51.676;22.650;2022-09-28T03:47:56;4.77;;;1.43;;
72125;SDS011;59999;51.676;22.650;2022-09-28T03:50:22;6.83;;;1.57;;
72125;SDS011;59999;51.676;22.650;2022-09-28T03:52:48;6.82;;;2.20;;
72125;SDS011;59999;51.676;22.650;2022-09-28T03:55:14;6.75;;;2.00;;
72125;SDS011;59999;51.676;22.650;2022-09-28T03:57:40;6.13;;;1.77;;
72125;SDS011;59999;51.676;22.650;2022-09-28T04:00:06;6.50;;;1.90;;
72125;SDS011;59999;51.676;22.650;2022-09-28T04:02:33;8.48;;;2.95;;
72125;SDS011;59999;51.676;22.650;2022-09-28T04:04:59;7.88;;;3.08;;
72125;SDS011;59999;51.676;22.650;2022-09-28T04:07:25;6.90;;;2.30;;
72125;SDS011;59999;51.676;22.650;2022-09-28T04:09:51;7.68;;;2.70;;
72125;SDS011;59999;51.676;22.650;2022-09-28T04:12:17;10.98;;;3.67;;
72125;SDS011;59999;51.676;22.650;2022-09-28T04:14:43;10.73;;;3.60;;
72125;SDS011;59999;51.676;22.650;2022-09-28T04:17:08;11.30;;;4.18;;
72125;SDS011;59999;51.676;22.650;2022-09-28T04:19:35;9.20;;;3.42;;
72125;SDS011;59999;51.676;22.650;2022-09-28T04:22:00;6.43;;;2.40;;
72125;SDS011;59999;51.676;22.650;2022-09-28T04:24:26;6.32;;;2.38;;
72125;SDS011;59999;51.676;22.650;2022-09-28T04:26:52;7.72;;;2.90;;
72125;SDS011;59999;51.676;22.650;2022-09-28T04:29:38;7.32;;;2.60;;
72125;SDS011;59999;51.676;22.650;2022-09-28T04:32:06;8.23;;;3.00;;
72125;SDS011;59999;51.676;22.650;2022-09-28T04:34:32;8.15;;;2.67;;
72125;SDS011;59999;51.676;22.650;2022-09-28T04:36:57;7.63;;;2.92;;
72125;SDS011;59999;51.676;22.650;2022-09-28T04:39:23;7.27;;;2.50;;
72125;SDS011;59999;51.676;22.650;2022-09-28T04:41:49;7.53;;;2.60;;
72125;SDS011;59999;51.676;22.650;2022-09-28T04:44:15;7.78;;;2.83;;
72125;SDS011;59999;51.676;22.650;2022-09-28T04:46:42;12.37;;;3.30;;
72125;SDS011;59999;51.676;22.650;2022-09-28T04:49:08;6.70;;;2.58;;
72125;SDS011;59999;51.676;22.650;2022-09-28T04:51:34;8.55;;;2.97;;
72125;SDS011;59999;51.676;22.650;2022-09-28T04:54:01;10.50;;;3.88;;
72125;SDS011;59999;51.676;22.650;2022-09-28T04:56:26;11.43;;;4.67;;
72125;SDS011;59999;51.676;22.650;2022-09-28T04:58:52;11.40;;;4.43;;
72125;SDS011;59999;51.676;22.650;2022-09-28T05:01:19;9.55;;;3.90;;
72125;SDS011;59999;51.676;22.650;2022-09-28T05:03:47;9.13;;;3.95;;
72125;SDS011;59999;51.676;22.650;2022-09-28T05:06:14;10.60;;;3.93;;
72125;SDS011;59999;51.676;22.650;2022-09-28T05:08:41;10.25;;;4.03;;
72125;SDS011;59999;51.676;22.650;2022-09-28T05:11:08;8.98;;;3.67;;
72125;SDS011;59999;51.676;22.650;2022-09-28T05:13:42;9.93;;;3.67;;
72125;SDS011;59999;51.676;22.650;2022-09-28T05:16:10;11.27;;;3.78;;
72125;SDS011;59999;51.676;22.650;2022-09-28T05:18:37;8.97;;;3.57;;
72125;SDS011;59999;51.676;22.650;2022-09-28T05:21:07;10.23;;;3.30;;
72125;SDS011;59999;51.676;22.650;2022-09-28T05:23:34;8.27;;;3.00;;
72125;SDS011;59999;51.676;22.650;2022-09-28T05:26:00;9.05;;;3.40;;
72125;SDS011;59999;51.676;22.650;2022-09-28T05:28:28;8.60;;;2.87;;
72125;SDS011;59999;51.676;22.650;2022-09-28T05:30:58;8.25;;;3.50;;
72125;SDS011;59999;51.676;22.650;2022-09-28T05:33:25;8.65;;;3.72;;
72125;SDS011;59999;51.676;22.650;2022-09-28T05:35:51;7.88;;;3.17;;
72125;SDS011;59999;51.676;22.650;2022-09-28T05:38:17;7.85;;;3.25;;
72125;SDS011;59999;51.676;22.650;2022-09-28T05:40:43;8.83;;;3.60;;
72125;SDS011;59999;51.676;22.650;2022-09-28T05:43:09;9.38;;;3.30;;
72125;SDS011;59999;51.676;22.650;2022-09-28T05:45:36;8.02;;;2.95;;
72125;SDS011;59999;51.676;22.650;2022-09-28T05:48:01;8.30;;;3.30;;
72125;SDS011;59999;51.676;22.650;2022-09-28T05:50:27;8.38;;;2.97;;
72125;SDS011;59999;51.676;22.650;2022-09-28T05:52:57;8.32;;;3.40;;
72125;SDS011;59999;51.676;22.650;2022-09-28T05:55:24;8.23;;;3.17;;
72125;SDS011;59999;51.676;22.650;2022-09-28T05:57:50;7.47;;;2.80;;
72125;SDS011;59999;51.676;22.650;2022-09-28T06:00:16;9.00;;;3.20;;
72125;SDS011;59999;51.676;22.650;2022-09-28T06:02:42;6.65;;;2.67;;
72125;SDS011;59999;51.676;22.650;2022-09-28T06:05:08;8.33;;;3.60;;
72125;SDS011;59999;51.676;22.650;2022-09-28T06:07:34;7.97;;;3.00;;
72125;SDS011;59999;51.676;22.650;2022-09-28T06:10:00;8.30;;;2.83;;
72125;SDS011;59999;51.676;22.650;2022-09-28T06:12:26;8.15;;;3.30;;
72125;SDS011;59999;51.676;22.650;2022-09-28T06:14:52;8.37;;;3.30;;
72125;SDS011;59999;51.676;22.650;2022-09-28T06:17:19;8.63;;;3.42;;
72125;SDS011;59999;51.676;22.650;2022-09-28T06:19:45;8.35;;;3.47;;
72125;SDS011;59999;51.676;22.650;2022-09-28T06:22:11;8.77;;;3.35;;
72125;SDS011;59999;51.676;22.650;2022-09-28T06:24:38;10.60;;;3.97;;
72125;SDS011;59999;51.676;22.650;2022-09-28T06:27:03;9.45;;;3.75;;
72125;SDS011;59999;51.676;22.650;2022-09-28T06:29:29;10.63;;;4.13;;
72125;SDS011;59999;51.676;22.650;2022-09-28T06:31:55;10.02;;;4.05;;
72125;SDS011;59999;51.676;22.650;2022-09-28T06:34:21;11.40;;;4.30;;
72125;SDS011;59999;51.676;22.650;2022-09-28T06:36:49;10.55;;;4.40;;
72125;SDS011;59999;51.676;22.650;2022-09-28T06:39:15;10.43;;;4.32;;
72125;SDS011;59999;51.676;22.650;2022-09-28T06:41:41;9.90;;;4.00;;
72125;SDS011;59999;51.676;22.650;2022-09-28T06:44:07;12.82;;;4.22;;
72125;SDS011;59999;51.676;22.650;2022-09-28T06:46:33;12.77;;;4.80;;
72125;SDS011;59999;51.676;22.650;2022-09-28T06:48:59;11.05;;;4.60;;
72125;SDS011;59999;51.676;22.650;2022-09-28T06:51:26;12.70;;;5.10;;
72125;SDS011;59999;51.676;22.650;2022-09-28T06:53:52;12.88;;;5.72;;
72125;SDS011;59999;51.676;22.650;2022-09-28T06:56:18;12.32;;;5.70;;
72125;SDS011;59999;51.676;22.650;2022-09-28T06:58:45;15.68;;;6.07;;
72125;SDS011;59999;51.676;22.650;2022-09-28T07:01:12;14.07;;;6.77;;
72125;SDS011;59999;51.676;22.650;2022-09-28T07:03:38;17.98;;;9.02;;
72125;SDS011;59999;51.676;22.650;2022-09-28T07:06:05;20.23;;;10.27;;
72125;SDS011;59999;51.676;22.650;2022-09-28T07:08:31;21.45;;;8.75;;
72125;SDS011;59999;51.676;22.650;2022-09-28T07:10:57;15.50;;;7.40;;
72125;SDS011;59999;51.676;22.650;2022-09-28T07:13:24;17.63;;;8.15;;
72125;SDS011;59999;51.676;22.650;2022-09-28T07:15:56;18.23;;;8.00;;
72125;SDS011;59999;51.676;22.650;2022-09-28T07:18:24;16.83;;;8.20;;
72125;SDS011;59999;51.676;22.650;2022-09-28T07:20:51;24.17;;;12.43;;
72125;SDS011;59999;51.676;22.650;2022-09-28T07:23:17;29.77;;;12.23;;
72125;SDS011;59999;51.676;22.650;2022-09-28T07:25:43;21.98;;;8.80;;
72125;SDS011;59999;51.676;22.650;2022-09-28T07:28:12;18.70;;;8.48;;
72125;SDS011;59999;51.676;22.650;2022-09-28T07:30:38;14.35;;;6.28;;
72125;SDS011;59999;51.676;22.650;2022-09-28T07:33:05;12.67;;;5.10;;
72125;SDS011;59999;51.676;22.650;2022-09-28T07:35:32;20.73;;;10.52;;
72125;SDS011;59999;51.676;22.650;2022-09-28T07:37:59;13.65;;;6.18;;
72125;SDS011;59999;51.676;22.650;2022-09-28T07:40:28;14.10;;;6.90;;
72125;SDS011;59999;51.676;22.650;2022-09-28T07:43:14;12.73;;;4.57;;
72125;SDS011;59999;51.676;22.650;2022-09-28T07:45:45;10.13;;;4.60;;
72125;SDS011;59999;51.676;22.650;2022-09-28T07:48:13;9.50;;;4.40;;
72125;SDS011;59999;51.676;22.650;2022-09-28T07:50:49;13.45;;;6.53;;
72125;SDS011;59999;51.676;22.650;2022-09-28T07:53:21;19.90;;;8.48;;
72125;SDS011;59999;51.676;22.650;2022-09-28T07:55:52;18.15;;;6.22;;
72125;SDS011;59999;51.676;22.650;2022-09-28T07:58:19;16.60;;;7.07;;
72125;SDS011;59999;51.676;22.650;2022-09-28T08:00:46;11.55;;;4.75;;
72125;SDS011;59999;51.676;22.650;2022-09-28T08:03:16;11.55;;;4.35;;
72125;SDS011;59999;51.676;22.650;2022-09-28T08:05:43;12.50;;;5.47;;
72125;SDS011;59999;51.676;22.650;2022-09-28T08:08:10;13.95;;;6.53;;
72125;SDS011;59999;51.676;22.650;2022-09-28T08:10:35;13.23;;;4.50;;
72125;SDS011;59999;51.676;22.650;2022-09-28T08:13:02;10.98;;;3.97;;
72125;SDS011;59999;51.676;22.650;2022-09-28T08:15:32;10.00;;;4.18;;
72125;SDS011;59999;51.676;22.650;2022-09-28T08:18:03;7.97;;;3.25;;
72125;SDS011;59999;51.676;22.650;2022-09-28T08:20:30;9.57;;;3.88;;
72125;SDS011;59999;51.676;22.650;2022-09-28T08:23:15;9.47;;;3.67;;
72125;SDS011;59999;51.676;22.650;2022-09-28T08:25:45;9.70;;;3.90;;
72125;SDS011;59999;51.676;22.650;2022-09-28T08:28:14;9.82;;;3.90;;
72125;SDS011;59999;51.676;22.650;2022-09-28T08:30:45;8.77;;;3.88;;
72125;SDS011;59999;51.676;22.650;2022-09-28T08:33:12;7.10;;;3.70;;
72125;SDS011;59999;51.676;22.650;2022-09-28T08:35:38;7.93;;;3.70;;
72125;SDS011;59999;51.676;22.650;2022-09-28T08:38:08;8.32;;;4.20;;
72125;SDS011;59999;51.676;22.650;2022-09-28T08:46:23;8.38;;;3.45;;
72125;SDS011;59999;51.676;22.650;2022-09-28T08:52:01;9.32;;;3.78;;
72125;SDS011;59999;51.676;22.650;2022-09-28T08:54:36;7.55;;;3.45;;
72125;SDS011;59999;51.676;22.650;2022-09-28T08:57:13;8.10;;;3.90;;
72125;SDS011;59999;51.676;22.650;2022-09-28T08:59:56;9.07;;;4.20;;
72125;SDS011;59999;51.676;22.650;2022-09-28T09:02:31;8.47;;;3.63;;
72125;SDS011;59999;51.676;22.650;2022-09-28T09:04:59;8.88;;;4.10;;
72125;SDS011;59999;51.676;22.650;2022-09-28T09:10:34;8.85;;;4.32;;
72125;SDS011;59999;51.676;22.650;2022-09-28T09:16:10;7.30;;;3.40;;
72125;SDS011;59999;51.676;22.650;2022-09-28T09:18:48;7.03;;;2.78;;
72125;SDS011;59999;51.676;22.650;2022-09-28T09:24:22;6.32;;;2.88;;
72125;SDS011;59999;51.676;22.650;2022-09-28T09:27:05;6.50;;;2.65;;
72125;SDS011;59999;51.676;22.650;2022-09-28T09:45:44;6.72;;;2.10;;
72125;SDS011;59999;51.676;22.650;2022-09-28T09:48:19;6.50;;;2.38;;
72125;SDS011;59999;51.676;22.650;2022-09-28T09:51:15;6.07;;;2.17;;
72125;SDS011;59999;51.676;22.650;2022-09-28T09:53:49;7.23;;;2.70;;
72125;SDS011;59999;51.676;22.650;2022-09-28T09:56:26;7.10;;;2.42;;
72125;SDS011;59999;51.676;22.650;2022-09-28T09:59:04;5.78;;;2.08;;
72125;SDS011;59999;51.676;22.650;2022-09-28T10:01:36;5.90;;;2.10;;
72125;SDS011;59999;51.676;22.650;2022-09-28T10:04:05;6.97;;;2.00;;
72125;SDS011;59999;51.676;22.650;2022-09-28T10:06:51;6.07;;;2.43;;
72125;SDS011;59999;51.676;22.650;2022-09-28T10:09:34;5.03;;;1.45;;
72125;SDS011;59999;51.676;22.650;2022-09-28T10:12:07;5.38;;;1.85;;
72125;SDS011;59999;51.676;22.650;2022-09-28T10:14:36;4.72;;;2.20;;
72125;SDS011;59999;51.676;22.650;2022-09-28T10:17:02;5.00;;;2.00;;
72125;SDS011;59999;51.676;22.650;2022-09-28T10:19:30;6.40;;;1.90;;
72125;SDS011;59999;51.676;22.650;2022-09-28T10:22:02;4.80;;;1.60;;
72125;SDS011;59999;51.676;22.650;2022-09-28T10:24:33;4.63;;;1.65;;
72125;SDS011;59999;51.676;22.650;2022-09-28T10:27:10;5.13;;;1.60;;
72125;SDS011;59999;51.676;22.650;2022-09-28T10:29:44;4.35;;;1.90;;
72125;SDS011;59999;51.676;22.650;2022-09-28T10:32:21;4.33;;;1.50;;
72125;SDS011;59999;51.676;22.650;2022-09-28T10:35:11;4.63;;;1.98;;
72125;SDS011;59999;51.676;22.650;2022-09-28T10:37:52;6.20;;;2.50;;
72125;SDS011;59999;51.676;22.650;2022-09-28T10:40:24;7.80;;;2.60;;
72125;SDS011;59999;51.676;22.650;2022-09-28T10:43:14;6.13;;;2.30;;
72125;SDS011;59999;51.676;22.650;2022-09-28T10:45:47;6.03;;;2.10;;
72125;SDS011;59999;51.676;22.650;2022-09-28T10:54:19;5.63;;;2.10;;
72125;SDS011;59999;51.676;22.650;2022-09-28T10:56:47;5.45;;;1.90;;
72125;SDS011;59999;51.676;22.650;2022-09-28T11:04:39;4.07;;;1.40;;
72125;SDS011;59999;51.676;22.650;2022-09-28T11:07:19;4.60;;;1.35;;
72125;SDS011;59999;51.676;22.650;2022-09-28T11:09:50;3.90;;;1.10;;
72125;SDS011;59999;51.676;22.650;2022-09-28T11:12:21;5.93;;;1.50;;
72125;SDS011;59999;51.676;22.650;2022-09-28T11:15:00;4.22;;;1.30;;
72125;SDS011;59999;51.676;22.650;2022-09-28T11:20:36;5.03;;;1.70;;
72125;SDS011;59999;51.676;22.650;2022-09-28T11:25:58;4.57;;;1.70;;
72125;SDS011;59999;51.676;22.650;2022-09-28T11:28:28;4.53;;;1.58;;
72125;SDS011;59999;51.676;22.650;2022-09-28T11:30:59;4.88;;;1.83;;
72125;SDS011;59999;51.676;22.650;2022-09-28T11:39:05;4.10;;;1.60;;
72125;SDS011;59999;51.676;22.650;2022-09-28T11:49:38;4.43;;;1.30;;
72125;SDS011;59999;51.676;22.650;2022-09-28T11:52:25;3.70;;;1.10;;
72125;SDS011;59999;51.676;22.650;2022-09-28T11:55:18;4.30;;;1.48;;
72125;SDS011;59999;51.676;22.650;2022-09-28T11:58:12;5.82;;;1.50;;
72125;SDS011;59999;51.676;22.650;2022-09-28T12:00:46;4.90;;;1.40;;
72125;SDS011;59999;51.676;22.650;2022-09-28T12:03:41;4.70;;;1.48;;
72125;SDS011;59999;51.676;22.650;2022-09-28T12:06:17;4.50;;;1.50;;
72125;SDS011;59999;51.676;22.650;2022-09-28T12:08:50;3.78;;;1.42;;
72125;SDS011;59999;51.676;22.650;2022-09-28T12:11:20;4.50;;;1.40;;
72125;SDS011;59999;51.676;22.650;2022-09-28T12:13:52;4.85;;;1.25;;
72125;SDS011;59999;51.676;22.650;2022-09-28T12:16:25;4.53;;;1.40;;
72125;SDS011;59999;51.676;22.650;2022-09-28T12:22:04;4.72;;;1.50;;
72125;SDS011;59999;51.676;22.650;2022-09-28T12:24:26;4.80;;;1.60;;
72125;SDS011;59999;51.676;22.650;2022-09-28T12:27:03;4.68;;;1.83;;
72125;SDS011;59999;51.676;22.650;2022-09-28T12:34:58;5.25;;;1.98;;
72125;SDS011;59999;51.676;22.650;2022-09-28T12:37:43;4.85;;;2.10;;
72125;SDS011;59999;51.676;22.650;2022-09-28T12:40:55;4.40;;;2.00;;
72125;SDS011;59999;51.676;22.650;2022-09-28T12:43:48;5.57;;;2.30;;
72125;SDS011;59999;51.676;22.650;2022-09-28T12:46:34;8.30;;;2.50;;
72125;SDS011;59999;51.676;22.650;2022-09-28T12:49:12;5.28;;;2.30;;
72125;SDS011;59999;51.676;22.650;2022-09-28T12:51:49;5.25;;;2.10;;
72125;SDS011;59999;51.676;22.650;2022-09-28T12:54:40;6.18;;;2.50;;
72125;SDS011;59999;51.676;22.650;2022-09-28T13:00:18;5.70;;;1.60;;
72125;SDS011;59999;51.676;22.650;2022-09-28T13:08:34;4.60;;;1.65;;
72125;SDS011;59999;51.676;22.650;2022-09-28T13:21:55;43.30;;;23.15;;
72125;SDS011;59999;51.676;22.650;2022-09-28T13:24:25;7.93;;;4.23;;
72125;SDS011;59999;51.676;22.650;2022-09-28T13:26:56;8.82;;;5.20;;
72125;SDS011;59999;51.676;22.650;2022-09-28T13:29:27;5.75;;;3.10;;
72125;SDS011;59999;51.676;22.650;2022-09-28T13:31:55;7.18;;;3.67;;
72125;SDS011;59999;51.676;22.650;2022-09-28T13:34:24;5.80;;;3.35;;
72125;SDS011;59999;51.676;22.650;2022-09-28T13:39:55;6.63;;;2.72;;
72125;SDS011;59999;51.676;22.650;2022-09-28T13:42:38;10.15;;;5.03;;
72125;SDS011;59999;51.676;22.650;2022-09-28T13:58:45;9.18;;;3.25;;
72125;SDS011;59999;51.676;22.650;2022-09-28T14:01:19;7.82;;;3.53;;
72125;SDS011;59999;51.676;22.650;2022-09-28T14:04:12;6.53;;;3.13;;
72125;SDS011;59999;51.676;22.650;2022-09-28T14:07:07;8.40;;;2.88;;
72125;SDS011;59999;51.676;22.650;2022-09-28T14:09:40;7.57;;;4.10;;
72125;SDS011;59999;51.676;22.650;2022-09-28T14:12:27;8.75;;;4.18;;
72125;SDS011;59999;51.676;22.650;2022-09-28T14:15:00;8.38;;;4.28;;
72125;SDS011;59999;51.676;22.650;2022-09-28T14:19:53;6.38;;;2.72;;
72125;SDS011;59999;51.676;22.650;2022-09-28T14:22:30;8.00;;;3.38;;
72125;SDS011;59999;51.676;22.650;2022-09-28T14:25:18;6.82;;;3.40;;
72125;SDS011;59999;51.676;22.650;2022-09-28T14:30:25;5.43;;;2.50;;
72125;SDS011;59999;51.676;22.650;2022-09-28T14:35:45;15.10;;;6.15;;
72125;SDS011;59999;51.676;22.650;2022-09-28T14:38:16;10.32;;;6.22;;
72125;SDS011;59999;51.676;22.650;2022-09-28T14:41:24;12.30;;;4.60;;
72125;SDS011;59999;51.676;22.650;2022-09-28T14:43:59;12.90;;;7.45;;
72125;SDS011;59999;51.676;22.650;2022-09-28T14:46:42;8.98;;;3.83;;
72125;SDS011;59999;51.676;22.650;2022-09-28T14:51:43;11.38;;;5.25;;
72125;SDS011;59999;51.676;22.650;2022-09-28T14:54:26;10.40;;;4.33;;
72125;SDS011;59999;51.676;22.650;2022-09-28T14:57:15;7.95;;;3.92;;
72125;SDS011;59999;51.676;22.650;2022-09-28T14:59:42;7.15;;;3.45;;
72125;SDS011;59999;51.676;22.650;2022-09-28T15:05:08;5.55;;;2.67;;
72125;SDS011;59999;51.676;22.650;2022-09-28T15:07:55;7.17;;;4.40;;
72125;SDS011;59999;51.676;22.650;2022-09-28T15:13:02;6.38;;;3.35;;
72125;SDS011;59999;51.676;22.650;2022-09-28T15:20:48;9.33;;;3.97;;
72125;SDS011;59999;51.676;22.650;2022-09-28T15:26:02;7.80;;;3.83;;
72125;SDS011;59999;51.676;22.650;2022-09-28T15:28:32;8.75;;;4.35;;
72125;SDS011;59999;51.676;22.650;2022-09-28T15:31:01;9.38;;;4.40;;
72125;SDS011;59999;51.676;22.650;2022-09-28T15:33:30;8.40;;;4.10;;
72125;SDS011;59999;51.676;22.650;2022-09-28T15:36:25;8.32;;;4.30;;
72125;SDS011;59999;51.676;22.650;2022-09-28T15:41:56;9.02;;;4.53;;
72125;SDS011;59999;51.676;22.650;2022-09-28T15:44:26;9.73;;;4.70;;
72125;SDS011;59999;51.676;22.650;2022-09-28T15:47:07;10.20;;;4.50;;
72125;SDS011;59999;51.676;22.650;2022-09-28T15:49:45;9.15;;;4.63;;
72125;SDS011;59999;51.676;22.650;2022-09-28T15:52:39;11.07;;;4.90;;
72125;SDS011;59999;51.676;22.650;2022-09-28T15:55:26;15.02;;;7.68;;
72125;SDS011;59999;51.676;22.650;2022-09-28T15:58:06;14.90;;;10.05;;
72125;SDS011;59999;51.676;22.650;2022-09-28T16:00:34;17.67;;;10.60;;
72125;SDS011;59999;51.676;22.650;2022-09-28T16:05:38;12.90;;;7.70;;
72125;SDS011;59999;51.676;22.650;2022-09-28T16:11:04;12.55;;;5.90;;
72125;SDS011;59999;51.676;22.650;2022-09-28T16:13:43;10.37;;;5.47;;
72125;SDS011;59999;51.676;22.650;2022-09-28T16:16:33;10.30;;;5.28;;
72125;SDS011;59999;51.676;22.650;2022-09-28T16:19:11;11.27;;;6.00;;
72125;SDS011;59999;51.676;22.650;2022-09-28T16:21:58;11.65;;;4.30;;
72125;SDS011;59999;51.676;22.650;2022-09-28T16:24:36;10.68;;;5.13;;
72125;SDS011;59999;51.676;22.650;2022-09-28T16:30:12;17.60;;;8.13;;
72125;SDS011;59999;51.676;22.650;2022-09-28T16:33:01;20.98;;;9.05;;
72125;SDS011;59999;51.676;22.650;2022-09-28T16:35:31;26.80;;;10.07;;
72125;SDS011;59999;51.676;22.650;2022-09-28T16:38:14;25.88;;;11.02;;
72125;SDS011;59999;51.676;22.650;2022-09-28T16:40:48;21.07;;;8.90;;
72125;SDS011;59999;51.676;22.650;2022-09-28T16:43:19;17.88;;;8.00;;
72125;SDS011;59999;51.676;22.650;2022-09-28T16:45:50;14.70;;;6.38;;
72125;SDS011;59999;51.676;22.650;2022-09-28T16:48:29;13.57;;;6.13;;
72125;SDS011;59999;51.676;22.650;2022-09-28T16:50:56;15.27;;;6.63;;
72125;SDS011;59999;51.676;22.650;2022-09-28T16:53:23;16.57;;;7.70;;
72125;SDS011;59999;51.676;22.650;2022-09-28T16:56:08;22.40;;;9.18;;
72125;SDS011;59999;51.676;22.650;2022-09-28T16:58:35;21.92;;;9.73;;
72125;SDS011;59999;51.676;22.650;2022-09-28T17:01:02;18.35;;;8.50;;
72125;SDS011;59999;51.676;22.650;2022-09-28T17:03:28;19.88;;;8.68;;
72125;SDS011;59999;51.676;22.650;2022-09-28T17:05:54;16.73;;;7.30;;
72125;SDS011;59999;51.676;22.650;2022-09-28T17:08:21;17.05;;;7.35;;
72125;SDS011;59999;51.676;22.650;2022-09-28T17:13:17;22.15;;;11.40;;
72125;SDS011;59999;51.676;22.650;2022-09-28T17:15:58;24.60;;;11.45;;
72125;SDS011;59999;51.676;22.650;2022-09-28T17:18:26;17.90;;;7.80;;
72125;SDS011;59999;51.676;22.650;2022-09-28T17:20:52;16.98;;;7.88;;
72125;SDS011;59999;51.676;22.650;2022-09-28T17:23:21;52.85;;;15.43;;
72125;SDS011;59999;51.676;22.650;2022-09-28T17:25:47;62.13;;;18.02;;
72125;SDS011;59999;51.676;22.650;2022-09-28T17:28:23;36.03;;;23.87;;
72125;SDS011;59999;51.676;22.650;2022-09-28T17:30:56;10.35;;;5.07;;
72125;SDS011;59999;51.676;22.650;2022-09-28T17:33:22;9.20;;;3.50;;
72125;SDS011;59999;51.676;22.650;2022-09-28T17:35:56;12.30;;;4.35;;
72125;SDS011;59999;51.676;22.650;2022-09-28T17:38:24;9.93;;;4.35;;
72125;SDS011;59999;51.676;22.650;2022-09-28T17:40:50;11.10;;;4.67;;
72125;SDS011;59999;51.676;22.650;2022-09-28T17:43:16;9.55;;;4.13;;
72125;SDS011;59999;51.676;22.650;2022-09-28T17:45:43;9.52;;;4.03;;
72125;SDS011;59999;51.676;22.650;2022-09-28T17:48:12;11.15;;;4.68;;
72125;SDS011;59999;51.676;22.650;2022-09-28T17:50:42;12.45;;;6.60;;
72125;SDS011;59999;51.676;22.650;2022-09-28T17:53:12;13.93;;;8.00;;
72125;SDS011;59999;51.676;22.650;2022-09-28T17:55:38;16.80;;;9.52;;
72125;SDS011;59999;51.676;22.650;2022-09-28T17:58:17;17.25;;;10.15;;
72125;SDS011;59999;51.676;22.650;2022-09-28T18:00:46;17.75;;;10.00;;
72125;SDS011;59999;51.676;22.650;2022-09-28T18:03:14;16.42;;;8.70;;
72125;SDS011;59999;51.676;22.650;2022-09-28T18:05:45;13.57;;;6.87;;
72125;SDS011;59999;51.676;22.650;2022-09-28T18:08:15;13.68;;;6.07;;